sensor_id;sensor_type;location;lat;lon;timestamp;temperature;humidity
10873;DHT22;34586;53.616;10.032;2023-04-24T00:00:05;12.70;99.90
10873;DHT22;34586;53.616;10.032;2023-04-24T00:02:32;12.60;99.90
10873;DHT22;34586;53.616;10.032;2023-04-24T00:04:58;12.60;99.90
10873;DHT22;34586;53.616;10.032;2023-04-24T00:07:28;12.60;99.90
10873;DHT22;34586;53.616;10.032;2023-04-24T00:09:54;12.50;99.90
10873;DHT22;34586;53.616;10.032;2023-04-24T00:12:20;12.50;99.90
10873;DHT22;34586;53.616;10.032;2023-04-24T00:14:46;12.50;99.90
10873;DHT22;34586;53.616;10.032;2023-04-24T00:17:12;12.50;99.90
10873;DHT22;34586;53.616;10.032;2023-04-24T00:19:38;12.50;99.90
10873;DHT22;34586;53.616;10.032;2023-04-24T00:22:04;12.50;99.90
10873;DHT22;34586;53.616;10.032;2023-04-24T00:24:29;12.50;99.90
10873;DHT22;34586;53.616;10.032;2023-04-24T00:26:55;12.50;99.90
10873;DHT22;34586;53.616;10.032;2023-04-24T00:29:21;12.40;99.90
10873;DHT22;34586;53.616;10.032;2023-04-24T00:31:47;12.40;99.90
10873;DHT22;34586;53.616;10.032;2023-04-24T00:34:12;12.40;99.90
10873;DHT22;34586;53.616;10.032;2023-04-24T00:36:38;12.40;99.90
10873;DHT22;34586;53.616;10.032;2023-04-24T00:39:03;12.40;99.90
10873;DHT22;34586;53.616;10.032;2023-04-24T00:41:29;12.30;99.90
10873;DHT22;34586;53.616;10.032;2023-04-24T00:43:55;12.30;99.90
10873;DHT22;34586;53.616;10.032;2023-04-24T00:46:21;12.30;99.90
10873;DHT22;34586;53.616;10.032;2023-04-24T00:48:47;12.30;99.90
10873;DHT22;34586;53.616;10.032;2023-04-24T00:51:13;12.30;99.90
10873;DHT22;34586;53.616;10.032;2023-04-24T00:53:39;12.20;99.90
10873;DHT22;34586;53.616;10.032;2023-04-24T00:56:06;12.20;99.90
10873;DHT22;34586;53.616;10.032;2023-04-24T00:58:32;12.20;99.90
10873;DHT22;34586;53.616;10.032;2023-04-24T01:00:58;12.20;99.90
10873;DHT22;34586;53.616;10.032;2023-04-24T01:03:29;12.10;99.90
10873;DHT22;34586;53.616;10.032;2023-04-24T01:05:57;12.20;99.90
10873;DHT22;34586;53.616;10.032;2023-04-24T01:08:26;12.10;99.90
10873;DHT22;34586;53.616;10.032;2023-04-24T01:10:53;12.10;99.90
10873;DHT22;34586;53.616;10.032;2023-04-24T01:13:20;12.10;99.90
10873;DHT22;34586;53.616;10.032;2023-04-24T01:15:47;12.10;99.90
10873;DHT22;34586;53.616;10.032;2023-04-24T01:18:14;12.10;99.90
10873;DHT22;34586;53.616;10.032;2023-04-24T01:20:42;12.10;99.90
10873;DHT22;34586;53.616;10.032;2023-04-24T01:23:09;12.10;99.90
10873;DHT22;34586;53.616;10.032;2023-04-24T01:25:37;12.10;99.90
10873;DHT22;34586;53.616;10.032;2023-04-24T01:28:06;12.10;99.90
10873;DHT22;34586;53.616;10.032;2023-04-24T01:30:32;12.00;99.90
10873;DHT22;34586;53.616;10.032;2023-04-24T01:32:59;11.90;99.90
10873;DHT22;34586;53.616;10.032;2023-04-24T01:35:25;11.90;99.90
10873;DHT22;34586;53.616;10.032;2023-04-24T01:37:52;11.80;99.90
10873;DHT22;34586;53.616;10.032;2023-04-24T01:40:17;11.80;99.90
10873;DHT22;34586;53.616;10.032;2023-04-24T01:42:45;11.80;99.90
10873;DHT22;34586;53.616;10.032;2023-04-24T01:45:11;11.90;99.90
10873;DHT22;34586;53.616;10.032;2023-04-24T01:47:38;11.90;99.90
10873;DHT22;34586;53.616;10.032;2023-04-24T01:50:05;11.90;99.90
10873;DHT22;34586;53.616;10.032;2023-04-24T01:52:31;12.00;99.90
10873;DHT22;34586;53.616;10.032;2023-04-24T01:55:05;12.00;99.90
10873;DHT22;34586;53.616;10.032;2023-04-24T01:57:31;12.00;99.90
10873;DHT22;34586;53.616;10.032;2023-04-24T01:59:57;12.00;99.90
10873;DHT22;34586;53.616;10.032;2023-04-24T02:02:23;12.10;99.90
10873;DHT22;34586;53.616;10.032;2023-04-24T02:04:55;12.00;99.90
10873;DHT22;34586;53.616;10.032;2023-04-24T02:07:21;11.90;99.90
10873;DHT22;34586;53.616;10.032;2023-04-24T02:09:47;11.90;99.90
10873;DHT22;34586;53.616;10.032;2023-04-24T02:12:13;11.90;99.90
10873;DHT22;34586;53.616;10.032;2023-04-24T02:14:38;11.90;99.90
10873;DHT22;34586;53.616;10.032;2023-04-24T02:17:04;11.80;99.90
10873;DHT22;34586;53.616;10.032;2023-04-24T02:19:32;11.70;99.90
10873;DHT22;34586;53.616;10.032;2023-04-24T02:21:58;11.70;99.90
10873;DHT22;34586;53.616;10.032;2023-04-24T02:24:24;11.60;99.90
10873;DHT22;34586;53.616;10.032;2023-04-24T02:26:50;11.60;99.90
10873;DHT22;34586;53.616;10.032;2023-04-24T02:29:15;11.60;99.90
10873;DHT22;34586;53.616;10.032;2023-04-24T02:31:41;11.60;99.90
10873;DHT22;34586;53.616;10.032;2023-04-24T02:34:06;11.60;99.90
10873;DHT22;34586;53.616;10.032;2023-04-24T02:36:32;11.50;99.90
10873;DHT22;34586;53.616;10.032;2023-04-24T02:38:58;11.60;99.90
10873;DHT22;34586;53.616;10.032;2023-04-24T02:41:23;11.40;99.90
10873;DHT22;34586;53.616;10.032;2023-04-24T02:43:49;11.30;99.90
10873;DHT22;34586;53.616;10.032;2023-04-24T02:46:14;11.30;99.90
10873;DHT22;34586;53.616;10.032;2023-04-24T02:48:40;11.30;99.90
10873;DHT22;34586;53.616;10.032;2023-04-24T02:51:06;11.30;99.90
10873;DHT22;34586;53.616;10.032;2023-04-24T02:53:32;11.20;99.90
10873;DHT22;34586;53.616;10.032;2023-04-24T02:55:58;11.20;99.90
10873;DHT22;34586;53.616;10.032;2023-04-24T02:58:24;11.10;99.90
10873;DHT22;34586;53.616;10.032;2023-04-24T03:00:54;11.10;99.90
10873;DHT22;34586;53.616;10.032;2023-04-24T03:03:21;11.00;99.90
10873;DHT22;34586;53.616;10.032;2023-04-24T03:05:46;11.00;99.90
10873;DHT22;34586;53.616;10.032;2023-04-24T03:08:13;11.00;99.90
10873;DHT22;34586;53.616;10.032;2023-04-24T03:10:40;11.00;99.90
10873;DHT22;34586;53.616;10.032;2023-04-24T03:13:07;11.00;99.90
10873;DHT22;34586;53.616;10.032;2023-04-24T03:15:32;11.00;99.90
10873;DHT22;34586;53.616;10.032;2023-04-24T03:17:58;11.00;99.90
10873;DHT22;34586;53.616;10.032;2023-04-24T03:20:24;11.00;99.90
10873;DHT22;34586;53.616;10.032;2023-04-24T03:22:49;11.00;99.90
10873;DHT22;34586;53.616;10.032;2023-04-24T03:25:16;11.00;99.90
10873;DHT22;34586;53.616;10.032;2023-04-24T03:27:42;11.00;99.90
10873;DHT22;34586;53.616;10.032;2023-04-24T03:30:08;10.90;99.90
10873;DHT22;34586;53.616;10.032;2023-04-24T03:32:34;10.90;99.90
10873;DHT22;34586;53.616;10.032;2023-04-24T03:35:00;10.90;99.90
10873;DHT22;34586;53.616;10.032;2023-04-24T03:37:25;11.00;99.90
10873;DHT22;34586;53.616;10.032;2023-04-24T03:39:52;10.90;99.90
10873;DHT22;34586;53.616;10.032;2023-04-24T03:42:18;10.90;99.90
10873;DHT22;34586;53.616;10.032;2023-04-24T03:44:43;10.90;99.90
10873;DHT22;34586;53.616;10.032;2023-04-24T03:47:12;10.80;99.90
10873;DHT22;34586;53.616;10.032;2023-04-24T03:49:38;10.80;99.90
10873;DHT22;34586;53.616;10.032;2023-04-24T03:52:03;10.80;99.90
10873;DHT22;34586;53.616;10.032;2023-04-24T03:54:29;10.80;99.90
10873;DHT22;34586;53.616;10.032;2023-04-24T03:56:54;10.80;99.90
10873;DHT22;34586;53.616;10.032;2023-04-24T03:59:20;10.80;99.90
10873;DHT22;34586;53.616;10.032;2023-04-24T04:01:48;10.70;99.90
10873;DHT22;34586;53.616;10.032;2023-04-24T04:04:14;10.80;99.90
10873;DHT22;34586;53.616;10.032;2023-04-24T04:06:39;10.80;99.90
10873;DHT22;34586;53.616;10.032;2023-04-24T04:09:10;10.80;99.90
10873;DHT22;34586;53.616;10.032;2023-04-24T04:11:36;10.80;99.90
10873;DHT22;34586;53.616;10.032;2023-04-24T04:14:01;10.80;99.90
10873;DHT22;34586;53.616;10.032;2023-04-24T04:16:27;10.80;99.90
10873;DHT22;34586;53.616;10.032;2023-04-24T04:18:53;10.80;99.90
10873;DHT22;34586;53.616;10.032;2023-04-24T04:21:20;10.80;99.90
10873;DHT22;34586;53.616;10.032;2023-04-24T04:23:45;10.90;99.90
10873;DHT22;34586;53.616;10.032;2023-04-24T04:26:12;10.90;99.90
10873;DHT22;34586;53.616;10.032;2023-04-24T04:28:38;10.90;99.90
10873;DHT22;34586;53.616;10.032;2023-04-24T04:31:05;10.80;99.90
10873;DHT22;34586;53.616;10.032;2023-04-24T04:33:32;10.90;99.90
10873;DHT22;34586;53.616;10.032;2023-04-24T04:35:57;10.90;99.90
10873;DHT22;34586;53.616;10.032;2023-04-24T04:38:23;10.90;99.90
10873;DHT22;34586;53.616;10.032;2023-04-24T04:40:49;10.90;99.90
10873;DHT22;34586;53.616;10.032;2023-04-24T04:43:15;10.90;99.90
10873;DHT22;34586;53.616;10.032;2023-04-24T04:45:41;10.90;99.90
10873;DHT22;34586;53.616;10.032;2023-04-24T04:48:09;10.90;99.90
10873;DHT22;34586;53.616;10.032;2023-04-24T04:50:38;10.80;99.90
10873;DHT22;34586;53.616;10.032;2023-04-24T04:53:04;10.90;99.90
10873;DHT22;34586;53.616;10.032;2023-04-24T04:55:30;10.90;99.90
10873;DHT22;34586;53.616;10.032;2023-04-24T04:57:56;11.10;99.90
10873;DHT22;34586;53.616;10.032;2023-04-24T05:00:23;11.30;99.90
10873;DHT22;34586;53.616;10.032;2023-04-24T05:02:55;11.40;99.90
10873;DHT22;34586;53.616;10.032;2023-04-24T05:05:21;11.50;99.90
10873;DHT22;34586;53.616;10.032;2023-04-24T05:07:46;11.70;99.90
10873;DHT22;34586;53.616;10.032;2023-04-24T05:10:12;11.70;99.90
10873;DHT22;34586;53.616;10.032;2023-04-24T05:12:37;11.60;99.90
10873;DHT22;34586;53.616;10.032;2023-04-24T05:15:03;11.60;99.90
10873;DHT22;34586;53.616;10.032;2023-04-24T05:17:29;11.50;99.90
10873;DHT22;34586;53.616;10.032;2023-04-24T05:19:55;11.50;99.90
10873;DHT22;34586;53.616;10.032;2023-04-24T05:22:21;11.40;99.90
10873;DHT22;34586;53.616;10.032;2023-04-24T05:24:47;11.40;99.90
10873;DHT22;34586;53.616;10.032;2023-04-24T05:27:13;11.40;99.90
10873;DHT22;34586;53.616;10.032;2023-04-24T05:29:39;11.50;99.90
10873;DHT22;34586;53.616;10.032;2023-04-24T05:32:05;11.50;99.90
10873;DHT22;34586;53.616;10.032;2023-04-24T05:34:31;11.60;99.90
10873;DHT22;34586;53.616;10.032;2023-04-24T05:37:01;11.70;99.90
10873;DHT22;34586;53.616;10.032;2023-04-24T05:39:29;11.70;99.90
10873;DHT22;34586;53.616;10.032;2023-04-24T05:41:56;11.70;99.90
10873;DHT22;34586;53.616;10.032;2023-04-24T05:44:23;11.80;99.90
10873;DHT22;34586;53.616;10.032;2023-04-24T05:46:48;11.90;99.90
10873;DHT22;34586;53.616;10.032;2023-04-24T05:49:14;11.80;99.90
10873;DHT22;34586;53.616;10.032;2023-04-24T05:51:40;12.00;99.90
10873;DHT22;34586;53.616;10.032;2023-04-24T05:54:07;11.90;99.90
10873;DHT22;34586;53.616;10.032;2023-04-24T05:56:55;11.90;99.90
10873;DHT22;34586;53.616;10.032;2023-04-24T05:59:21;12.00;99.90
10873;DHT22;34586;53.616;10.032;2023-04-24T06:01:47;12.10;99.90
10873;DHT22;34586;53.616;10.032;2023-04-24T06:04:12;12.10;99.90
10873;DHT22;34586;53.616;10.032;2023-04-24T06:06:41;12.00;99.90
10873;DHT22;34586;53.616;10.032;2023-04-24T06:09:06;12.10;99.90
10873;DHT22;34586;53.616;10.032;2023-04-24T06:11:32;12.10;99.90
10873;DHT22;34586;53.616;10.032;2023-04-24T06:13:59;12.10;99.90
10873;DHT22;34586;53.616;10.032;2023-04-24T06:16:25;12.10;99.90
10873;DHT22;34586;53.616;10.032;2023-04-24T06:18:50;12.20;99.90
10873;DHT22;34586;53.616;10.032;2023-04-24T06:21:16;12.20;99.90
10873;DHT22;34586;53.616;10.032;2023-04-24T06:23:42;12.10;99.90
10873;DHT22;34586;53.616;10.032;2023-04-24T06:26:11;12.20;99.90
10873;DHT22;34586;53.616;10.032;2023-04-24T06:28:36;12.20;99.90
10873;DHT22;34586;53.616;10.032;2023-04-24T06:31:07;12.20;99.90
10873;DHT22;34586;53.616;10.032;2023-04-24T06:33:35;12.30;99.90
10873;DHT22;34586;53.616;10.032;2023-04-24T06:36:01;12.30;99.90
10873;DHT22;34586;53.616;10.032;2023-04-24T06:38:26;12.40;99.90
10873;DHT22;34586;53.616;10.032;2023-04-24T06:40:52;12.40;99.90
10873;DHT22;34586;53.616;10.032;2023-04-24T06:43:18;12.40;99.90
10873;DHT22;34586;53.616;10.032;2023-04-24T06:45:46;12.50;99.90
10873;DHT22;34586;53.616;10.032;2023-04-24T06:48:12;12.50;99.90
10873;DHT22;34586;53.616;10.032;2023-04-24T06:50:38;12.60;99.90
10873;DHT22;34586;53.616;10.032;2023-04-24T06:53:03;12.70;99.90
10873;DHT22;34586;53.616;10.032;2023-04-24T06:55:29;12.60;99.90
10873;DHT22;34586;53.616;10.032;2023-04-24T06:57:55;12.60;99.90
10873;DHT22;34586;53.616;10.032;2023-04-24T07:00:20;12.60;99.90
10873;DHT22;34586;53.616;10.032;2023-04-24T07:02:46;12.70;99.90
10873;DHT22;34586;53.616;10.032;2023-04-24T07:05:12;12.90;99.90
10873;DHT22;34586;53.616;10.032;2023-04-24T07:07:38;13.10;99.90
10873;DHT22;34586;53.616;10.032;2023-04-24T07:10:05;13.20;99.90
10873;DHT22;34586;53.616;10.032;2023-04-24T07:12:31;13.20;99.90
10873;DHT22;34586;53.616;10.032;2023-04-24T07:14:58;13.30;99.90
10873;DHT22;34586;53.616;10.032;2023-04-24T07:17:23;13.40;99.90
10873;DHT22;34586;53.616;10.032;2023-04-24T07:19:50;13.50;99.90
10873;DHT22;34586;53.616;10.032;2023-04-24T07:22:16;13.60;99.90
10873;DHT22;34586;53.616;10.032;2023-04-24T07:24:44;13.70;99.90
10873;DHT22;34586;53.616;10.032;2023-04-24T07:27:10;13.70;99.90
10873;DHT22;34586;53.616;10.032;2023-04-24T07:29:37;13.90;99.90
10873;DHT22;34586;53.616;10.032;2023-04-24T07:32:03;13.90;99.90
10873;DHT22;34586;53.616;10.032;2023-04-24T07:34:29;13.90;99.90
10873;DHT22;34586;53.616;10.032;2023-04-24T07:36:54;13.90;99.90
10873;DHT22;34586;53.616;10.032;2023-04-24T07:39:22;13.90;99.90
10873;DHT22;34586;53.616;10.032;2023-04-24T07:41:47;14.00;99.90
10873;DHT22;34586;53.616;10.032;2023-04-24T07:44:13;14.10;99.90
10873;DHT22;34586;53.616;10.032;2023-04-24T07:46:40;14.10;99.90
10873;DHT22;34586;53.616;10.032;2023-04-24T07:49:05;14.00;99.90
10873;DHT22;34586;53.616;10.032;2023-04-24T07:51:34;14.00;99.90
10873;DHT22;34586;53.616;10.032;2023-04-24T07:54:04;13.90;99.90
10873;DHT22;34586;53.616;10.032;2023-04-24T07:56:32;13.80;99.90
10873;DHT22;34586;53.616;10.032;2023-04-24T07:58:58;13.90;99.90
10873;DHT22;34586;53.616;10.032;2023-04-24T08:01:24;14.00;99.90
10873;DHT22;34586;53.616;10.032;2023-04-24T08:03:51;14.30;99.90
10873;DHT22;34586;53.616;10.032;2023-04-24T08:06:16;14.40;99.90
10873;DHT22;34586;53.616;10.032;2023-04-24T08:08:43;14.50;99.90
10873;DHT22;34586;53.616;10.032;2023-04-24T08:11:09;14.60;99.90
10873;DHT22;34586;53.616;10.032;2023-04-24T08:13:35;14.40;99.90
10873;DHT22;34586;53.616;10.032;2023-04-24T08:16:00;14.20;99.90
10873;DHT22;34586;53.616;10.032;2023-04-24T08:18:26;14.10;99.90
10873;DHT22;34586;53.616;10.032;2023-04-24T08:20:52;14.00;99.90
10873;DHT22;34586;53.616;10.032;2023-04-24T08:23:18;13.80;99.90
10873;DHT22;34586;53.616;10.032;2023-04-24T08:25:44;13.70;99.90
10873;DHT22;34586;53.616;10.032;2023-04-24T08:28:11;13.80;99.90
10873;DHT22;34586;53.616;10.032;2023-04-24T08:30:45;13.90;99.90
10873;DHT22;34586;53.616;10.032;2023-04-24T08:33:14;14.00;99.90
10873;DHT22;34586;53.616;10.032;2023-04-24T08:35:40;14.20;99.90
10873;DHT22;34586;53.616;10.032;2023-04-24T08:38:05;14.30;99.90
10873;DHT22;34586;53.616;10.032;2023-04-24T08:40:34;14.30;99.90
10873;DHT22;34586;53.616;10.032;2023-04-24T08:43:01;14.10;99.90
10873;DHT22;34586;53.616;10.032;2023-04-24T08:45:29;14.10;99.90
10873;DHT22;34586;53.616;10.032;2023-04-24T08:47:55;13.90;99.90
10873;DHT22;34586;53.616;10.032;2023-04-24T08:50:22;13.90;99.90
10873;DHT22;34586;53.616;10.032;2023-04-24T08:52:50;14.10;99.90
10873;DHT22;34586;53.616;10.032;2023-04-24T08:55:16;14.10;99.90
10873;DHT22;34586;53.616;10.032;2023-04-24T08:57:45;14.20;99.90
10873;DHT22;34586;53.616;10.032;2023-04-24T09:00:15;14.30;99.90
10873;DHT22;34586;53.616;10.032;2023-04-24T09:02:45;14.30;99.90
10873;DHT22;34586;53.616;10.032;2023-04-24T09:05:13;14.40;99.90
10873;DHT22;34586;53.616;10.032;2023-04-24T09:07:50;14.60;99.90
10873;DHT22;34586;53.616;10.032;2023-04-24T09:10:21;14.60;99.90
10873;DHT22;34586;53.616;10.032;2023-04-24T09:12:50;14.50;99.90
10873;DHT22;34586;53.616;10.032;2023-04-24T09:15:16;14.70;99.90
10873;DHT22;34586;53.616;10.032;2023-04-24T09:17:43;14.90;99.90
10873;DHT22;34586;53.616;10.032;2023-04-24T09:20:09;14.80;99.90
10873;DHT22;34586;53.616;10.032;2023-04-24T09:22:36;14.90;99.90
10873;DHT22;34586;53.616;10.032;2023-04-24T09:25:07;15.00;99.90
10873;DHT22;34586;53.616;10.032;2023-04-24T09:27:41;15.00;99.90
10873;DHT22;34586;53.616;10.032;2023-04-24T09:30:08;15.00;99.90
10873;DHT22;34586;53.616;10.032;2023-04-24T09:32:34;14.90;99.90
10873;DHT22;34586;53.616;10.032;2023-04-24T09:35:13;14.80;99.90
10873;DHT22;34586;53.616;10.032;2023-04-24T09:37:42;14.80;99.90
10873;DHT22;34586;53.616;10.032;2023-04-24T09:40:18;14.90;99.90
10873;DHT22;34586;53.616;10.032;2023-04-24T09:43:04;14.90;99.90
10873;DHT22;34586;53.616;10.032;2023-04-24T09:45:36;14.80;99.90
10873;DHT22;34586;53.616;10.032;2023-04-24T09:48:02;14.80;99.90
10873;DHT22;34586;53.616;10.032;2023-04-24T09:50:30;14.90;99.90
10873;DHT22;34586;53.616;10.032;2023-04-24T09:53:08;14.70;99.90
10873;DHT22;34586;53.616;10.032;2023-04-24T09:55:40;14.70;99.90
10873;DHT22;34586;53.616;10.032;2023-04-24T09:58:13;14.70;99.90
10873;DHT22;34586;53.616;10.032;2023-04-24T10:00:42;14.60;99.90
10873;DHT22;34586;53.616;10.032;2023-04-24T10:03:07;14.40;99.90
10873;DHT22;34586;53.616;10.032;2023-04-24T10:05:34;14.10;99.90
10873;DHT22;34586;53.616;10.032;2023-04-24T10:08:05;14.10;99.90
10873;DHT22;34586;53.616;10.032;2023-04-24T10:10:37;13.90;99.90
10873;DHT22;34586;53.616;10.032;2023-04-24T10:13:04;14.00;99.90
10873;DHT22;34586;53.616;10.032;2023-04-24T10:15:30;14.00;99.90
10873;DHT22;34586;53.616;10.032;2023-04-24T10:17:58;14.00;99.90
10873;DHT22;34586;53.616;10.032;2023-04-24T10:20:30;13.90;99.90
10873;DHT22;34586;53.616;10.032;2023-04-24T10:22:58;14.00;99.90
10873;DHT22;34586;53.616;10.032;2023-04-24T10:25:29;14.10;99.90
10873;DHT22;34586;53.616;10.032;2023-04-24T10:27:56;14.10;99.90
10873;DHT22;34586;53.616;10.032;2023-04-24T10:30:23;14.10;99.90
10873;DHT22;34586;53.616;10.032;2023-04-24T10:32:49;14.10;99.90
10873;DHT22;34586;53.616;10.032;2023-04-24T10:35:15;14.00;99.90
10873;DHT22;34586;53.616;10.032;2023-04-24T10:37:49;14.10;99.90
10873;DHT22;34586;53.616;10.032;2023-04-24T10:40:19;14.30;99.90
10873;DHT22;34586;53.616;10.032;2023-04-24T10:42:53;14.40;99.90
10873;DHT22;34586;53.616;10.032;2023-04-24T10:45:20;14.40;99.90
10873;DHT22;34586;53.616;10.032;2023-04-24T10:48:01;14.60;99.90
10873;DHT22;34586;53.616;10.032;2023-04-24T10:50:29;14.50;99.90
10873;DHT22;34586;53.616;10.032;2023-04-24T10:53:06;14.50;99.90
10873;DHT22;34586;53.616;10.032;2023-04-24T10:58:14;14.90;99.90
10873;DHT22;34586;53.616;10.032;2023-04-24T11:00:42;14.90;99.90
10873;DHT22;34586;53.616;10.032;2023-04-24T11:03:30;15.00;99.90
10873;DHT22;34586;53.616;10.032;2023-04-24T11:06:08;14.90;99.90
10873;DHT22;34586;53.616;10.032;2023-04-24T11:08:44;14.80;99.90
10873;DHT22;34586;53.616;10.032;2023-04-24T11:11:10;14.70;99.90
10873;DHT22;34586;53.616;10.032;2023-04-24T11:22:04;15.10;99.90
10873;DHT22;34586;53.616;10.032;2023-04-24T11:24:40;15.20;99.90
10873;DHT22;34586;53.616;10.032;2023-04-24T11:27:22;15.40;99.90
10873;DHT22;34586;53.616;10.032;2023-04-24T11:29:59;15.50;99.90
10873;DHT22;34586;53.616;10.032;2023-04-24T11:34:56;15.60;99.90
10873;DHT22;34586;53.616;10.032;2023-04-24T11:37:23;15.70;99.90
10873;DHT22;34586;53.616;10.032;2023-04-24T11:39:51;15.90;99.90
10873;DHT22;34586;53.616;10.032;2023-04-24T11:42:18;15.90;99.90
10873;DHT22;34586;53.616;10.032;2023-04-24T11:44:46;16.00;99.90
10873;DHT22;34586;53.616;10.032;2023-04-24T11:47:13;16.10;99.90
10873;DHT22;34586;53.616;10.032;2023-04-24T11:49:39;16.00;99.90
10873;DHT22;34586;53.616;10.032;2023-04-24T11:52:05;16.00;99.90
10873;DHT22;34586;53.616;10.032;2023-04-24T11:54:30;15.80;99.90
10873;DHT22;34586;53.616;10.032;2023-04-24T11:56:57;15.50;99.90
10873;DHT22;34586;53.616;10.032;2023-04-24T11:59:22;15.40;99.90
10873;DHT22;34586;53.616;10.032;2023-04-24T12:01:49;15.50;99.90
10873;DHT22;34586;53.616;10.032;2023-04-24T12:04:17;15.60;99.90
10873;DHT22;34586;53.616;10.032;2023-04-24T12:07:02;15.50;99.90
10873;DHT22;34586;53.616;10.032;2023-04-24T12:09:29;15.20;99.90
10873;DHT22;34586;53.616;10.032;2023-04-24T12:12:06;15.10;99.90
10873;DHT22;34586;53.616;10.032;2023-04-24T12:14:32;15.00;99.90
10873;DHT22;34586;53.616;10.032;2023-04-24T12:16:57;14.90;99.90
10873;DHT22;34586;53.616;10.032;2023-04-24T12:19:23;15.10;99.90
10873;DHT22;34586;53.616;10.032;2023-04-24T12:22:02;15.30;99.90
10873;DHT22;34586;53.616;10.032;2023-04-24T12:24:31;15.60;99.90
10873;DHT22;34586;53.616;10.032;2023-04-24T12:26:58;15.50;99.90
10873;DHT22;34586;53.616;10.032;2023-04-24T12:29:24;15.40;99.90
10873;DHT22;34586;53.616;10.032;2023-04-24T12:31:50;15.30;99.90
10873;DHT22;34586;53.616;10.032;2023-04-24T12:34:20;15.20;99.90
10873;DHT22;34586;53.616;10.032;2023-04-24T12:36:47;15.10;99.90
10873;DHT22;34586;53.616;10.032;2023-04-24T12:39:19;15.00;99.90
10873;DHT22;34586;53.616;10.032;2023-04-24T12:41:55;14.80;99.90
10873;DHT22;34586;53.616;10.032;2023-04-24T12:44:34;14.90;99.90
10873;DHT22;34586;53.616;10.032;2023-04-24T12:47:01;14.60;99.90
10873;DHT22;34586;53.616;10.032;2023-04-24T12:49:29;14.70;99.90
10873;DHT22;34586;53.616;10.032;2023-04-24T12:51:56;14.70;99.90
10873;DHT22;34586;53.616;10.032;2023-04-24T12:54:22;14.60;99.90
10873;DHT22;34586;53.616;10.032;2023-04-24T12:56:49;14.60;99.90
10873;DHT22;34586;53.616;10.032;2023-04-24T12:59:14;14.50;99.90
10873;DHT22;34586;53.616;10.032;2023-04-24T13:01:41;14.50;99.90
10873;DHT22;34586;53.616;10.032;2023-04-24T13:04:06;14.30;99.90
10873;DHT22;34586;53.616;10.032;2023-04-24T13:06:32;14.10;99.90
10873;DHT22;34586;53.616;10.032;2023-04-24T13:08:59;14.00;99.90
10873;DHT22;34586;53.616;10.032;2023-04-24T13:11:24;13.90;99.90
10873;DHT22;34586;53.616;10.032;2023-04-24T13:13:50;13.80;99.90
10873;DHT22;34586;53.616;10.032;2023-04-24T13:16:16;13.50;99.90
10873;DHT22;34586;53.616;10.032;2023-04-24T13:18:41;13.50;99.90
10873;DHT22;34586;53.616;10.032;2023-04-24T13:21:07;13.50;99.90
10873;DHT22;34586;53.616;10.032;2023-04-24T13:23:33;13.60;99.90
10873;DHT22;34586;53.616;10.032;2023-04-24T13:25:59;13.50;99.90
10873;DHT22;34586;53.616;10.032;2023-04-24T13:28:26;13.60;99.90
10873;DHT22;34586;53.616;10.032;2023-04-24T13:30:52;13.50;99.90
10873;DHT22;34586;53.616;10.032;2023-04-24T13:33:17;13.50;99.90
10873;DHT22;34586;53.616;10.032;2023-04-24T13:35:44;13.60;99.90
10873;DHT22;34586;53.616;10.032;2023-04-24T13:38:10;13.60;99.90
10873;DHT22;34586;53.616;10.032;2023-04-24T13:40:35;13.50;99.90
10873;DHT22;34586;53.616;10.032;2023-04-24T13:43:01;13.40;99.90
10873;DHT22;34586;53.616;10.032;2023-04-24T13:45:27;13.20;99.90
10873;DHT22;34586;53.616;10.032;2023-04-24T13:47:54;13.20;99.90
10873;DHT22;34586;53.616;10.032;2023-04-24T13:50:20;13.20;99.90
10873;DHT22;34586;53.616;10.032;2023-04-24T13:52:46;13.20;99.90
10873;DHT22;34586;53.616;10.032;2023-04-24T13:55:12;13.20;99.90
10873;DHT22;34586;53.616;10.032;2023-04-24T13:57:37;13.20;99.90
10873;DHT22;34586;53.616;10.032;2023-04-24T14:00:03;13.30;99.90
10873;DHT22;34586;53.616;10.032;2023-04-24T14:02:29;13.40;99.90
10873;DHT22;34586;53.616;10.032;2023-04-24T14:04:55;13.40;99.90
10873;DHT22;34586;53.616;10.032;2023-04-24T14:07:22;13.40;99.90
10873;DHT22;34586;53.616;10.032;2023-04-24T14:09:48;13.40;99.90
10873;DHT22;34586;53.616;10.032;2023-04-24T14:12:14;13.50;99.90
10873;DHT22;34586;53.616;10.032;2023-04-24T14:14:41;13.40;99.90
10873;DHT22;34586;53.616;10.032;2023-04-24T14:17:07;13.40;99.90
10873;DHT22;34586;53.616;10.032;2023-04-24T14:19:34;13.40;99.90
10873;DHT22;34586;53.616;10.032;2023-04-24T14:22:01;13.30;99.90
10873;DHT22;34586;53.616;10.032;2023-04-24T14:24:30;13.20;99.90
10873;DHT22;34586;53.616;10.032;2023-04-24T14:26:55;13.20;99.90
10873;DHT22;34586;53.616;10.032;2023-04-24T14:29:23;13.20;99.90
10873;DHT22;34586;53.616;10.032;2023-04-24T14:31:49;13.20;99.90
10873;DHT22;34586;53.616;10.032;2023-04-24T14:34:15;13.30;99.90
10873;DHT22;34586;53.616;10.032;2023-04-24T14:36:41;13.30;99.90
10873;DHT22;34586;53.616;10.032;2023-04-24T14:39:07;13.20;99.90
10873;DHT22;34586;53.616;10.032;2023-04-24T14:41:33;13.20;99.90
10873;DHT22;34586;53.616;10.032;2023-04-24T14:44:02;13.10;99.90
10873;DHT22;34586;53.616;10.032;2023-04-24T14:46:29;12.90;99.90
10873;DHT22;34586;53.616;10.032;2023-04-24T14:48:56;12.80;99.90
10873;DHT22;34586;53.616;10.032;2023-04-24T14:51:25;12.60;99.90
10873;DHT22;34586;53.616;10.032;2023-04-24T14:53:52;12.40;99.90
10873;DHT22;34586;53.616;10.032;2023-04-24T14:56:17;12.10;99.90
10873;DHT22;34586;53.616;10.032;2023-04-24T14:58:43;11.90;99.90
10873;DHT22;34586;53.616;10.032;2023-04-24T15:01:09;11.70;99.90
10873;DHT22;34586;53.616;10.032;2023-04-24T15:03:34;11.70;99.90
10873;DHT22;34586;53.616;10.032;2023-04-24T15:06:00;11.70;99.90
10873;DHT22;34586;53.616;10.032;2023-04-24T15:08:27;11.60;99.90
10873;DHT22;34586;53.616;10.032;2023-04-24T15:10:54;11.60;99.90
10873;DHT22;34586;53.616;10.032;2023-04-24T15:13:21;11.60;99.90
10873;DHT22;34586;53.616;10.032;2023-04-24T15:15:47;11.50;99.90
10873;DHT22;34586;53.616;10.032;2023-04-24T15:18:13;11.40;99.90
10873;DHT22;34586;53.616;10.032;2023-04-24T15:20:38;11.40;99.90
10873;DHT22;34586;53.616;10.032;2023-04-24T15:23:05;11.40;99.90
10873;DHT22;34586;53.616;10.032;2023-04-24T15:25:31;11.30;99.90
10873;DHT22;34586;53.616;10.032;2023-04-24T15:27:57;11.30;99.90